createdAt,value
2018-06-21T00:00:08.162Z,85.14
2018-06-21T00:02:36.615Z,85.36
2018-06-21T00:05:05.110Z,85.46
2018-06-21T00:07:33.570Z,85.51
2018-06-21T00:10:02.253Z,85.89
2018-06-21T00:12:30.746Z,85.74
2018-06-21T00:14:59.271Z,85.66
2018-06-21T00:17:27.726Z,85.68
2018-06-21T00:19:56.207Z,85.28
2018-06-21T00:22:24.826Z,84.66
2018-06-21T00:24:53.440Z,84.85
2018-06-21T00:27:21.851Z,84.93
2018-06-21T00:29:50.306Z,85.28
2018-06-21T00:32:18.814Z,85.38
2018-06-21T00:34:47.270Z,85.22
2018-06-21T00:37:15.702Z,84.99
2018-06-21T00:39:44.151Z,84.75
2018-06-21T00:42:12.627Z,85.27
2018-06-21T00:44:41.127Z,85.41
2018-06-21T00:47:09.987Z,85.63
2018-06-21T00:49:38.354Z,85.84
2018-06-21T00:52:06.755Z,85.51
2018-06-21T00:54:35.215Z,85.50
2018-06-21T00:57:03.637Z,85.71
2018-06-21T00:59:32.103Z,85.26
2018-06-21T01:02:00.610Z,85.33
2018-06-21T01:04:29.070Z,85.02
2018-06-21T01:06:57.582Z,85.71
2018-06-21T01:09:26.023Z,85.24
2018-06-21T01:11:54.590Z,85.66
2018-06-21T01:14:26.337Z,86.61
2018-06-21T01:16:54.866Z,85.23
2018-06-21T01:19:23.462Z,85.97
2018-06-21T01:21:51.951Z,86.11
2018-06-21T01:24:21.136Z,85.34
2018-06-21T01:26:49.613Z,85.99
2018-06-21T01:29:18.082Z,86.73
2018-06-21T01:31:46.585Z,86.38
2018-06-21T01:34:15.143Z,86.32
2018-06-21T01:36:43.676Z,86.35
2018-06-21T01:39:12.157Z,87.10
2018-06-21T01:41:40.558Z,87.01
2018-06-21T01:44:08.959Z,87.23
2018-06-21T01:46:37.422Z,87.67
2018-06-21T01:49:05.844Z,88.03
2018-06-21T01:51:34.274Z,88.72
2018-06-21T01:54:02.711Z,89.02
2018-06-21T02:02:58.939Z,89.00
2018-06-21T02:05:27.325Z,89.38
2018-06-21T02:07:55.833Z,90.18
2018-06-21T02:10:24.378Z,90.02
2018-06-21T02:12:52.801Z,89.96
2018-06-21T02:15:21.224Z,89.73
2018-06-21T02:17:53.938Z,90.10
2018-06-21T02:20:22.426Z,89.61
2018-06-21T02:22:50.983Z,88.85
2018-06-21T02:25:19.413Z,89.02
2018-06-21T02:27:47.842Z,89.73
2018-06-21T02:30:16.278Z,89.85
2018-06-21T02:32:44.706Z,90.69
2018-06-21T02:35:13.510Z,91.42
2018-06-21T02:37:42.355Z,90.78
2018-06-21T02:40:10.815Z,90.67
2018-06-21T02:42:39.254Z,91.58
2018-06-21T02:45:07.695Z,91.83
2018-06-21T02:47:36.079Z,91.79
2018-06-21T02:50:04.824Z,92.27
2018-06-21T02:52:33.290Z,91.68
2018-06-21T02:55:02.154Z,91.55
2018-06-21T02:57:30.827Z,90.91
2018-06-21T02:59:59.345Z,91.45
2018-06-21T03:02:27.723Z,91.36
2018-06-21T03:04:56.121Z,91.72
2018-06-21T03:07:24.607Z,91.66
2018-06-21T03:09:53.082Z,91.33
2018-06-21T03:12:22.987Z,91.74
2018-06-21T03:14:52.394Z,92.49
2018-06-21T03:17:20.955Z,92.07
2018-06-21T03:19:49.602Z,91.35
2018-06-21T03:22:18.102Z,91.62
2018-06-21T03:24:46.522Z,91.76
2018-06-21T03:27:15.110Z,91.87
2018-06-21T03:29:43.591Z,91.87
2018-06-21T03:32:12.147Z,91.81
2018-06-21T03:34:40.748Z,91.00
2018-06-21T03:37:09.181Z,91.07
2018-06-21T03:39:37.575Z,90.30
2018-06-21T03:42:06.030Z,89.88
2018-06-21T03:44:34.530Z,89.47
2018-06-21T03:47:03.007Z,89.56
2018-06-21T03:49:31.447Z,89.78
2018-06-21T03:52:00.033Z,89.42
2018-06-21T03:54:35.547Z,89.89
2018-06-21T03:57:04.481Z,89.25
2018-06-21T03:59:32.967Z,89.13
2018-06-21T04:02:01.461Z,89.02
2018-06-21T04:04:29.927Z,89.07
2018-06-21T04:06:58.450Z,89.42
2018-06-21T04:09:27.051Z,88.45
2018-06-21T04:11:55.658Z,88.22
2018-06-21T04:14:24.253Z,87.47
2018-06-21T04:16:52.782Z,87.20
2018-06-21T04:19:21.304Z,86.36
2018-06-21T04:21:49.719Z,86.38
2018-06-21T04:24:18.346Z,86.64
2018-06-21T04:26:46.808Z,85.94
2018-06-21T04:29:15.262Z,85.97
2018-06-21T04:31:45.119Z,85.73
2018-06-21T04:34:17.612Z,85.52
2018-06-21T04:36:48.016Z,85.45
2018-06-21T04:39:19.184Z,85.60
2018-06-21T04:41:49.137Z,84.91
2018-06-21T04:44:19.892Z,83.95
2018-06-21T04:46:49.997Z,84.43
2018-06-21T04:49:20.573Z,83.72
2018-06-21T04:51:52.880Z,83.09
2018-06-21T04:54:23.538Z,82.74
2018-06-21T04:56:54.230Z,82.14
2018-06-21T04:59:24.537Z,80.90
2018-06-21T05:01:55.398Z,80.92
2018-06-21T05:04:27.200Z,79.59
2018-06-21T05:06:56.133Z,79.60
2018-06-21T05:09:24.773Z,78.50
2018-06-21T05:11:53.532Z,78.15
2018-06-21T05:14:22.396Z,78.67
2018-06-21T05:16:52.149Z,78.25
2018-06-21T05:19:21.242Z,78.63
2018-06-21T05:21:49.956Z,79.23
2018-06-21T05:24:19.721Z,78.75
2018-06-21T05:26:48.492Z,77.89
2018-06-21T05:29:17.558Z,78.54
2018-06-21T05:31:46.584Z,78.36
2018-06-21T05:34:15.595Z,77.42
2018-06-21T05:36:44.478Z,77.67
2018-06-21T05:39:13.579Z,77.06
2018-06-21T05:41:42.769Z,76.94
2018-06-21T05:44:11.557Z,76.84
2018-06-21T05:46:40.425Z,77.94
2018-06-21T05:49:09.408Z,76.93
2018-06-21T05:51:38.387Z,77.11
2018-06-21T05:54:07.379Z,76.87
2018-06-21T05:56:36.436Z,76.61
2018-06-21T05:59:05.540Z,76.23
2018-06-21T06:01:34.613Z,76.74
2018-06-21T06:04:03.701Z,75.76
2018-06-21T06:06:32.616Z,76.52
2018-06-21T06:09:01.565Z,75.74
2018-06-21T06:11:30.386Z,76.53
2018-06-21T06:13:59.242Z,75.73
2018-06-21T06:16:27.796Z,76.30
2018-06-21T06:18:56.418Z,75.47
2018-06-21T06:21:24.904Z,75.34
2018-06-21T06:23:53.499Z,76.60
2018-06-21T06:26:22.015Z,75.91
2018-06-21T06:28:50.667Z,74.19
2018-06-21T06:31:19.479Z,70.64
2018-06-21T06:33:48.495Z,72.09
2018-06-21T06:36:17.369Z,70.77
2018-06-21T06:38:45.999Z,69.64
2018-06-21T06:41:14.644Z,69.57
2018-06-21T06:43:43.655Z,68.61
2018-06-21T06:46:12.814Z,68.98
2018-06-21T06:48:41.697Z,69.18
2018-06-21T06:51:10.685Z,69.39
2018-06-21T06:53:39.575Z,67.99
2018-06-21T06:56:08.131Z,67.78
2018-06-21T06:58:38.228Z,68.35
2018-06-21T07:01:06.935Z,67.05
2018-06-21T07:03:35.808Z,67.84
2018-06-21T07:06:04.394Z,66.46
2018-06-21T07:08:32.990Z,66.74
2018-06-21T07:11:01.457Z,67.26
2018-06-21T07:13:30.326Z,66.55
2018-06-21T07:15:58.870Z,66.68
2018-06-21T07:18:27.518Z,65.95
2018-06-21T07:20:56.491Z,66.34
2018-06-21T07:23:25.357Z,66.20
2018-06-21T07:25:54.143Z,65.89
2018-06-21T07:28:23.362Z,65.67
2018-06-21T07:30:52.332Z,65.38
2018-06-21T07:33:20.901Z,66.20
2018-06-21T07:35:49.566Z,65.96
2018-06-21T07:38:19.032Z,65.93
2018-06-21T07:40:47.887Z,66.15
2018-06-21T07:43:17.115Z,66.15
2018-06-21T07:45:46.097Z,65.62
2018-06-21T07:48:15.035Z,65.40
2018-06-21T07:50:43.881Z,65.49
2018-06-21T07:53:12.679Z,66.34
2018-06-21T07:55:41.263Z,66.86
2018-06-21T07:58:09.722Z,66.10
2018-06-21T08:00:38.190Z,65.92
2018-06-21T08:03:06.675Z,66.60
2018-06-21T08:05:35.347Z,66.23
2018-06-21T08:08:03.967Z,63.99
2018-06-21T08:10:32.527Z,64.50
2018-06-21T08:13:01.183Z,64.67
2018-06-21T08:15:29.909Z,64.82
2018-06-21T08:17:58.617Z,64.49
2018-06-21T08:20:27.163Z,65.13
2018-06-21T08:22:55.626Z,65.51
2018-06-21T08:25:24.278Z,65.59
2018-06-21T08:27:53.076Z,64.33
2018-06-21T08:30:21.527Z,64.51
2018-06-21T08:32:50.042Z,64.25
2018-06-21T08:35:18.517Z,64.18
2018-06-21T08:37:47.253Z,63.78
2018-06-21T08:40:16.763Z,63.83
2018-06-21T08:42:45.241Z,62.99
2018-06-21T08:45:13.707Z,61.84
2018-06-21T08:47:42.233Z,61.62
2018-06-21T08:50:10.809Z,62.36
2018-06-21T08:52:39.238Z,61.30
2018-06-21T08:55:07.733Z,62.53
2018-06-21T08:57:36.466Z,60.24
2018-06-21T09:00:05.116Z,59.95
2018-06-21T09:02:33.933Z,59.19
2018-06-21T09:05:02.647Z,59.05
2018-06-21T09:07:31.126Z,59.21
2018-06-21T09:09:59.714Z,59.95
2018-06-21T09:12:37.094Z,57.72
2018-06-21T09:15:06.946Z,57.01
2018-06-21T09:17:35.685Z,56.48
2018-06-21T09:20:04.228Z,55.75
2018-06-21T09:22:33.054Z,55.80
2018-06-21T09:25:02.309Z,54.12
2018-06-21T09:27:31.235Z,55.22
2018-06-21T09:29:59.812Z,54.69
2018-06-21T09:32:29.838Z,54.70
2018-06-21T09:34:58.322Z,53.63
2018-06-21T09:37:32.331Z,51.70
2018-06-21T09:40:05.954Z,50.48
2018-06-21T09:42:39.728Z,47.82
2018-06-21T09:45:08.326Z,47.54
2018-06-21T09:47:42.028Z,48.18
2018-06-21T09:50:10.482Z,47.03
2018-06-21T09:52:38.928Z,45.95
2018-06-21T09:55:07.474Z,44.37
2018-06-21T09:57:35.904Z,43.57
2018-06-21T10:00:04.415Z,41.09
2018-06-21T10:02:32.911Z,41.00
2018-06-21T10:05:01.348Z,39.12
2018-06-21T10:07:29.810Z,38.43
2018-06-21T10:09:58.260Z,37.50
2018-06-21T10:12:26.806Z,38.08
2018-06-21T10:14:55.247Z,37.66
2018-06-21T10:17:23.686Z,35.53
2018-06-21T10:19:52.273Z,37.19
2018-06-21T10:22:20.698Z,37.31
2018-06-21T10:24:49.315Z,39.14
2018-06-21T10:27:17.809Z,39.60
2018-06-21T10:29:46.262Z,39.85
2018-06-21T10:32:14.799Z,37.90
2018-06-21T10:34:43.262Z,37.42
2018-06-21T10:37:11.765Z,33.97
2018-06-21T10:39:40.242Z,34.15
2018-06-21T10:42:08.682Z,32.26
2018-06-21T10:44:37.162Z,30.92
2018-06-21T10:47:05.666Z,31.06
2018-06-21T10:49:34.103Z,31.82
2018-06-21T10:52:02.628Z,31.14
2018-06-21T10:54:31.066Z,35.85
2018-06-21T10:57:02.135Z,37.33
2018-06-21T10:59:31.018Z,35.01
2018-06-21T11:01:59.453Z,32.97
2018-06-21T11:04:27.968Z,28.52
2018-06-21T11:06:56.474Z,26.27
2018-06-21T11:09:25.494Z,28.41
2018-06-21T11:11:53.951Z,29.07
2018-06-21T11:14:22.347Z,28.68
2018-06-21T11:16:50.891Z,27.31
2018-06-21T11:19:19.368Z,26.68
2018-06-21T11:21:48.003Z,26.32
2018-06-21T11:24:16.452Z,25.78
2018-06-21T11:26:44.951Z,25.80
2018-06-21T11:29:13.492Z,26.56
2018-06-21T11:31:41.973Z,24.48
2018-06-21T11:34:10.442Z,26.27
2018-06-21T11:36:38.974Z,24.85
2018-06-21T11:39:09.258Z,24.49
2018-06-21T11:41:37.859Z,24.24
2018-06-21T11:44:06.847Z,24.66
2018-06-21T11:46:35.388Z,25.87
2018-06-21T11:49:03.997Z,25.93
2018-06-21T11:51:32.558Z,26.71
2018-06-21T11:54:01.102Z,24.60
2018-06-21T11:56:29.530Z,23.21
2018-06-21T11:58:57.946Z,23.70
2018-06-21T12:01:26.422Z,21.24
2018-06-21T12:03:54.918Z,21.10
2018-06-21T12:06:23.390Z,22.36
2018-06-21T12:08:51.948Z,21.95
2018-06-21T12:11:21.462Z,21.27
2018-06-21T12:13:51.514Z,20.30
2018-06-21T12:16:20.368Z,20.41
2018-06-21T12:18:49.145Z,19.97
2018-06-21T12:21:17.741Z,20.29
2018-06-21T12:23:46.339Z,18.41
2018-06-21T12:26:15.099Z,18.61
2018-06-21T12:28:44.170Z,19.73
2018-06-21T12:31:13.113Z,19.76
2018-06-21T12:33:42.170Z,21.48
2018-06-21T12:36:10.776Z,19.80
2018-06-21T12:38:39.376Z,20.05
2018-06-21T12:41:08.330Z,21.23
2018-06-21T12:43:36.935Z,19.78
2018-06-21T12:46:06.404Z,19.46
2018-06-21T12:48:34.914Z,19.47
2018-06-21T12:51:03.540Z,19.89
2018-06-21T12:53:32.141Z,19.65
2018-06-21T12:56:00.838Z,20.08
2018-06-21T12:58:33.771Z,21.17
2018-06-21T13:01:08.477Z,20.27
2018-06-21T13:03:41.441Z,21.34
2018-06-21T13:06:14.510Z,20.80
2018-06-21T13:08:56.642Z,19.85
2018-06-21T13:11:40.349Z,19.95
2018-06-21T13:14:20.522Z,21.12
2018-06-21T13:16:49.434Z,21.26
2018-06-21T13:19:18.069Z,22.05
2018-06-21T13:21:46.718Z,20.16
2018-06-21T13:24:15.391Z,19.36
2018-06-21T13:26:44.056Z,18.82
2018-06-21T13:29:12.692Z,19.60
2018-06-21T13:31:41.358Z,20.69
2018-06-21T13:34:10.248Z,20.97
2018-06-21T13:36:39.098Z,22.16
2018-06-21T13:39:08.449Z,20.11
2018-06-21T13:41:37.067Z,19.72
2018-06-21T13:44:05.894Z,21.76
2018-06-21T13:46:34.667Z,23.06
2018-06-21T13:49:03.258Z,21.92
2018-06-21T13:51:32.281Z,23.33
2018-06-21T13:54:01.266Z,21.04
2018-06-21T13:56:29.767Z,16.97
2018-06-21T13:58:58.432Z,16.99
2018-06-21T14:01:30.547Z,18.73
2018-06-21T14:03:59.522Z,18.75
2018-06-21T14:06:28.458Z,18.57
2018-06-21T14:09:00.280Z,20.95
2018-06-21T14:11:29.015Z,20.74
2018-06-21T14:13:58.339Z,19.37
2018-06-21T14:16:31.027Z,18.83
2018-06-21T14:18:59.741Z,17.54
2018-06-21T14:21:29.767Z,17.05
2018-06-21T14:23:58.574Z,15.77
2018-06-21T14:26:27.167Z,15.37
2018-06-21T14:28:56.511Z,14.08
2018-06-21T14:31:25.738Z,15.05
2018-06-21T14:33:54.738Z,16.00
2018-06-21T14:36:23.865Z,16.86
2018-06-21T14:38:52.939Z,16.33
2018-06-21T14:41:25.919Z,14.97
2018-06-21T14:43:54.931Z,15.06
2018-06-21T14:46:23.533Z,16.07
2018-06-21T14:48:52.571Z,16.11
2018-06-21T14:51:22.171Z,15.67
2018-06-21T14:53:56.213Z,14.91
2018-06-21T14:56:26.406Z,16.00
2018-06-21T14:58:55.054Z,14.96
2018-06-21T15:01:23.691Z,14.78
2018-06-21T15:03:52.427Z,13.95
2018-06-21T15:06:21.029Z,14.95
2018-06-21T15:08:49.523Z,14.08
2018-06-21T15:11:18.447Z,14.74
2018-06-21T15:13:51.272Z,16.85
2018-06-21T15:16:22.150Z,17.37
2018-06-21T15:18:50.843Z,14.88
2018-06-21T15:21:19.472Z,16.06
2018-06-21T15:23:49.016Z,19.86
2018-06-21T15:26:17.688Z,24.61
2018-06-21T15:28:46.171Z,28.66
2018-06-21T15:31:14.697Z,31.83
2018-06-21T15:33:43.325Z,33.90
2018-06-21T15:36:11.794Z,35.85
2018-06-21T15:38:40.396Z,38.18
2018-06-21T15:41:08.870Z,37.77
2018-06-21T15:43:37.396Z,39.05
2018-06-21T15:46:05.951Z,31.54
2018-06-21T15:48:34.732Z,25.75
2018-06-21T15:51:03.515Z,27.19
2018-06-21T15:53:32.393Z,29.25
2018-06-21T15:56:00.899Z,28.79
2018-06-21T15:58:29.479Z,27.59
2018-06-21T16:00:58.091Z,30.82
2018-06-21T16:03:26.655Z,33.39
2018-06-21T16:05:55.125Z,36.03
2018-06-21T16:08:23.924Z,36.54
2018-06-21T16:10:52.503Z,34.05
2018-06-21T16:13:20.970Z,35.80
2018-06-21T16:15:51.659Z,35.10
2018-06-21T16:18:20.519Z,31.33
2018-06-21T16:20:49.082Z,30.77
2018-06-21T16:23:17.530Z,27.92
2018-06-21T16:25:46.210Z,28.43
2018-06-21T16:28:14.787Z,27.03
2018-06-21T16:30:43.311Z,32.11
2018-06-21T16:33:11.802Z,35.50
2018-06-21T16:35:40.267Z,34.55
2018-06-21T16:38:08.678Z,34.58
2018-06-21T16:40:37.199Z,35.17
2018-06-21T16:43:05.981Z,36.34
2018-06-21T16:45:34.520Z,39.00
2018-06-21T16:48:03.007Z,38.83
2018-06-21T16:50:31.726Z,32.00
2018-06-21T16:53:00.440Z,37.02
2018-06-21T16:55:29.036Z,39.75
2018-06-21T16:57:57.499Z,41.31
2018-06-21T17:00:26.179Z,43.36
2018-06-21T17:02:54.648Z,42.48
2018-06-21T17:05:23.370Z,41.78
2018-06-21T17:07:52.083Z,35.64
2018-06-21T17:10:21.663Z,31.82
2018-06-21T17:12:50.200Z,36.00
2018-06-21T17:16:22.335Z,40.16
2018-06-21T17:18:51.047Z,43.77
2018-06-21T17:21:19.689Z,44.19
2018-06-21T17:23:48.236Z,45.00
2018-06-21T17:26:16.879Z,45.99
2018-06-21T17:28:45.474Z,47.74
2018-06-21T17:31:15.084Z,47.80
2018-06-21T17:33:43.594Z,48.14
2018-06-21T17:36:12.603Z,48.01
2018-06-21T17:38:42.082Z,48.84
2018-06-21T17:41:11.012Z,48.45
2018-06-21T17:43:39.739Z,49.66
2018-06-21T17:46:08.645Z,49.87
2018-06-21T17:48:37.420Z,49.56
2018-06-21T17:51:06.237Z,50.35
2018-06-21T17:53:35.050Z,49.31
2018-06-21T17:56:03.709Z,50.17
2018-06-21T17:58:32.505Z,49.97
2018-06-21T18:01:01.127Z,51.28
2018-06-21T18:03:29.628Z,51.40
2018-06-21T18:05:58.435Z,51.51
2018-06-21T18:08:26.947Z,51.64
2018-06-21T18:10:59.764Z,52.04
2018-06-21T18:13:28.416Z,51.78
2018-06-21T18:15:56.988Z,51.89
2018-06-21T18:18:25.504Z,52.18
2018-06-21T18:20:54.316Z,52.22
2018-06-21T18:23:22.923Z,52.41
2018-06-21T18:25:51.433Z,51.88
2018-06-21T18:28:20.182Z,51.57
2018-06-21T18:30:48.663Z,51.66
2018-06-21T18:33:17.470Z,52.13
2018-06-21T18:35:46.067Z,51.97
2018-06-21T18:38:14.940Z,52.12
2018-06-21T18:40:43.408Z,51.59
2018-06-21T18:43:12.146Z,50.68
2018-06-21T18:45:40.967Z,51.11
2018-06-21T18:48:09.455Z,51.34
2018-06-21T18:50:37.891Z,51.42
2018-06-21T18:53:06.438Z,50.52
2018-06-21T18:55:34.915Z,50.02
2018-06-21T18:58:03.434Z,49.71
2018-06-21T19:00:31.991Z,49.23
2018-06-21T19:03:00.468Z,48.33
2018-06-21T19:05:29.032Z,48.25
2018-06-21T19:08:02.822Z,48.05
2018-06-21T19:10:36.559Z,47.27
2018-06-21T19:13:05.098Z,47.15
2018-06-21T19:15:33.629Z,47.11
2018-06-21T19:18:02.190Z,47.17
2018-06-21T19:20:30.679Z,46.74
2018-06-21T19:22:59.153Z,47.47
2018-06-21T19:25:27.655Z,47.28
2018-06-21T19:27:56.183Z,47.87
2018-06-21T19:30:24.838Z,47.66
2018-06-21T19:32:53.438Z,48.09
2018-06-21T19:35:22.109Z,47.86
2018-06-21T19:37:50.526Z,48.37
2018-06-21T19:40:19.211Z,49.18
2018-06-21T19:42:48.390Z,49.08
2018-06-21T19:45:17.159Z,49.95
2018-06-21T19:47:45.731Z,49.93
2018-06-21T19:50:14.523Z,48.96
2018-06-21T19:52:43.354Z,49.12
2018-06-21T19:55:12.222Z,49.23
2018-06-21T19:57:40.806Z,49.13
2018-06-21T20:00:09.350Z,48.34
2018-06-21T20:02:43.132Z,47.89
2018-06-21T20:05:12.209Z,48.05
2018-06-21T20:07:40.758Z,48.45
2018-06-21T20:10:09.210Z,47.58
2018-06-21T20:12:37.715Z,48.13
2018-06-21T20:15:06.204Z,47.93
2018-06-21T20:17:34.753Z,47.67
2018-06-21T20:20:08.577Z,48.49
2018-06-21T20:22:37.431Z,47.77
2018-06-21T20:25:06.008Z,47.81
2018-06-21T20:27:34.605Z,46.66
2018-06-21T20:30:03.533Z,47.05
2018-06-21T20:32:31.954Z,45.76
2018-06-21T20:35:00.521Z,45.24
2018-06-21T20:37:29.039Z,46.11
2018-06-21T20:39:57.468Z,45.86
2018-06-21T20:42:25.875Z,45.60
2018-06-21T20:44:54.354Z,45.41
2018-06-21T20:47:22.890Z,44.65
2018-06-21T20:49:51.392Z,45.06
2018-06-21T20:52:25.150Z,43.03
2018-06-21T20:54:53.631Z,43.22
2018-06-21T20:57:22.247Z,42.12
2018-06-21T20:59:50.708Z,42.26
2018-06-21T21:02:19.194Z,40.66
2018-06-21T21:05:14.899Z,40.10
2018-06-21T21:07:44.244Z,41.22
2018-06-21T21:10:13.980Z,40.89
2018-06-21T21:12:42.564Z,40.99
2018-06-21T21:15:11.975Z,40.56
2018-06-21T21:17:40.557Z,40.71
2018-06-21T21:20:09.530Z,40.74
2018-06-21T21:22:39.188Z,41.52
2018-06-21T21:25:07.650Z,41.13
2018-06-21T21:27:36.395Z,41.55
2018-06-21T21:30:06.641Z,41.44
2018-06-21T21:32:35.496Z,41.74
2018-06-21T21:35:04.234Z,41.76
2018-06-21T21:37:32.998Z,42.00
2018-06-21T21:40:04.231Z,42.41
2018-06-21T21:42:34.003Z,42.16
2018-06-21T21:45:02.472Z,42.57
2018-06-21T21:47:31.214Z,42.81
2018-06-21T21:50:00.011Z,43.21
2018-06-21T21:52:28.770Z,43.39
2018-06-21T21:54:57.198Z,43.10
2018-06-21T21:57:25.711Z,43.87
2018-06-21T21:59:54.362Z,44.71
2018-06-21T22:02:23.054Z,43.89
2018-06-21T22:04:51.503Z,44.35
2018-06-21T22:07:19.951Z,44.21
2018-06-21T22:09:48.426Z,44.67
2018-06-21T22:12:16.906Z,44.81
2018-06-21T22:14:45.487Z,44.77
2018-06-21T22:17:13.981Z,44.24
2018-06-21T22:19:42.414Z,44.20
2018-06-21T22:22:10.794Z,43.64
2018-06-21T22:24:39.298Z,43.55
2018-06-21T22:27:07.738Z,43.29
2018-06-21T22:29:39.614Z,43.42
2018-06-21T22:32:08.091Z,43.51
2018-06-21T22:34:36.519Z,43.51
2018-06-21T22:37:04.954Z,43.45
2018-06-21T22:39:33.358Z,43.17
2018-06-21T22:42:01.763Z,42.96
2018-06-21T22:44:30.202Z,43.31
2018-06-21T22:46:58.604Z,44.05
2018-06-21T22:49:27.058Z,44.83
2018-06-21T22:51:55.513Z,45.17
2018-06-21T22:54:23.926Z,45.43
2018-06-21T22:56:52.437Z,45.57
2018-06-21T22:59:20.926Z,45.44
2018-06-21T23:01:53.326Z,45.07
2018-06-21T23:04:21.768Z,45.15
2018-06-21T23:06:51.286Z,45.23
2018-06-21T23:09:19.662Z,45.62
2018-06-21T23:11:48.084Z,46.09
2018-06-21T23:14:16.786Z,47.32
2018-06-21T23:16:45.410Z,47.13
2018-06-21T23:19:25.029Z,46.89
2018-06-21T23:21:53.780Z,47.60
2018-06-21T23:24:22.502Z,47.32
2018-06-21T23:26:52.299Z,48.37
2018-06-21T23:29:20.677Z,48.10
2018-06-21T23:31:49.455Z,47.84
2018-06-21T23:34:18.362Z,48.38
2018-06-21T23:36:46.910Z,48.21
2018-06-21T23:39:15.422Z,48.74
2018-06-21T23:41:44.393Z,49.02
2018-06-21T23:44:14.057Z,49.08
2018-06-21T23:46:43.101Z,49.38
2018-06-21T23:49:11.998Z,49.70
2018-06-21T23:51:40.625Z,50.00
2018-06-21T23:54:12.230Z,50.50
2018-06-21T23:56:41.453Z,50.30
2018-06-21T23:59:09.919Z,50.77
